Time;durP1;ratioP1;P1;durP2;ratioP2;P2;SDS_P1;SDS_P2;PMS_P1;PMS_P2;Temp;Humidity;BMP_temperature;BMP_pressure;BME280_temperature;BME280_humidity;BME280_pressure;Samples;Min_cycle;Max_cycle;Signal;HPM_P1;HPM_P2
2022/03/29 00:00:38;;;;;;;27.92;17.48;;;8.00;99.90;;;;;;5013639;28;20034;-64
2022/03/29 00:03:05;;;;;;;28.40;16.83;;;7.80;99.90;;;;;;5013809;28;20034;-63
2022/03/29 00:05:31;;;;;;;29.48;18.75;;;7.80;99.90;;;;;;5014115;28;20042;-64
2022/03/29 00:07:57;;;;;;;29.38;18.02;;;7.70;99.90;;;;;;4996317;28;20050;-64
2022/03/29 00:10:23;;;;;;;34.00;19.42;;;7.70;99.90;;;;;;5013302;28;20353;-63
2022/03/29 00:12:53;;;;;;;32.40;18.83;;;7.50;99.90;;;;;;5013653;28;20046;-63
2022/03/29 00:15:20;;;;;;;30.10;18.65;;;7.50;99.90;;;;;;4995996;28;20053;-63
2022/03/29 00:17:47;;;;;;;32.15;19.70;;;7.50;99.90;;;;;;5015945;28;20076;-64
2022/03/29 00:20:17;;;;;;;30.67;18.23;;;7.60;99.90;;;;;;5016822;28;20046;-63
2022/03/29 00:22:43;;;;;;;29.58;18.25;;;7.70;99.90;;;;;;5017229;28;20045;-63
2022/03/29 00:25:10;;;;;;;30.23;19.50;;;7.80;99.90;;;;;;5017302;28;20042;-63
2022/03/29 00:27:36;;;;;;;33.42;19.83;;;7.70;99.90;;;;;;5016788;28;20109;-65
2022/03/29 00:30:07;;;;;;;31.45;19.25;;;7.90;99.90;;;;;;5016914;28;20164;-64
2022/03/29 00:32:34;;;;;;;30.63;17.95;;;7.80;99.90;;;;;;5017068;28;20109;-62
2022/03/29 00:35:00;;;;;;;33.50;18.83;;;7.80;99.90;;;;;;5017160;28;20057;-63
2022/03/29 00:37:26;;;;;;;28.58;17.63;;;7.90;99.90;;;;;;5016978;28;20388;-65
2022/03/29 00:39:51;;;;;;;29.70;17.55;;;7.80;99.90;;;;;;5016153;28;20562;-63
2022/03/29 00:42:17;;;;;;;26.70;18.25;;;7.70;99.90;;;;;;5016730;28;20124;-63
2022/03/29 00:44:43;;;;;;;28.75;17.27;;;7.80;99.90;;;;;;5016876;28;20141;-62
2022/03/29 00:47:08;;;;;;;29.25;17.35;;;7.80;99.90;;;;;;5016496;28;20048;-63
2022/03/29 00:49:34;;;;;;;28.95;17.17;;;7.80;99.90;;;;;;5016582;28;20037;-62
2022/03/29 00:52:01;;;;;;;28.40;18.38;;;7.80;99.90;;;;;;5016517;28;20108;-62
2022/03/29 00:54:29;;;;;;;26.65;17.63;;;7.60;99.90;;;;;;5016781;28;20213;-63
2022/03/29 00:56:59;;;;;;;25.42;16.83;;;7.60;99.90;;;;;;5016730;28;20065;-63
2022/03/29 00:59:26;;;;;;;25.42;17.23;;;7.50;99.90;;;;;;5016073;28;20371;-63
2022/03/29 01:01:52;;;;;;;25.95;16.23;;;7.50;99.90;;;;;;4983120;28;20051;-63
2022/03/29 01:04:18;;;;;;;24.08;15.18;;;7.50;99.90;;;;;;4996940;28;20109;-63
2022/03/29 01:06:44;;;;;;;25.23;17.08;;;7.60;99.90;;;;;;4979406;28;20049;-63
2022/03/29 01:09:11;;;;;;;23.88;16.25;;;7.60;99.90;;;;;;4996613;28;20117;-63
2022/03/29 01:11:38;;;;;;;22.05;15.23;;;7.70;99.90;;;;;;5010088;28;20095;-64
2022/03/29 01:14:04;;;;;;;20.45;14.73;;;7.70;99.90;;;;;;5016009;28;20112;-62
2022/03/29 01:19:19;;;;;;;24.67;15.70;;;7.70;99.90;;;;;;5015980;28;20060;-63
2022/03/29 01:22:11;;;;;;;20.83;14.82;;;7.50;99.90;;;;;;5015885;28;20337;-63
2022/03/29 01:24:43;;;;;;;21.95;15.27;;;7.60;99.90;;;;;;5015742;28;20050;-65
2022/03/29 01:27:11;;;;;;;20.90;13.73;;;7.60;99.90;;;;;;4998762;28;20037;-63
2022/03/29 01:29:37;;;;;;;21.98;15.10;;;7.60;99.90;;;;;;5014565;28;20367;-65
2022/03/29 01:32:05;;;;;;;22.92;14.68;;;7.50;99.90;;;;;;5015629;28;20046;-63
2022/03/29 01:34:33;;;;;;;20.23;14.40;;;7.30;99.90;;;;;;5016015;28;20050;-62
2022/03/29 01:36:59;;;;;;;19.25;14.30;;;7.30;99.90;;;;;;5016052;28;20054;-63
2022/03/29 01:39:25;;;;;;;21.60;14.88;;;7.30;99.90;;;;;;4997862;28;20049;-63
2022/03/29 01:41:51;;;;;;;21.52;15.70;;;7.30;99.90;;;;;;5015494;28;20056;-63
2022/03/29 01:44:16;;;;;;;22.70;15.38;;;7.30;99.90;;;;;;5015425;28;20045;-65
2022/03/29 01:46:42;;;;;;;20.42;14.57;;;7.40;99.90;;;;;;5015336;28;20038;-63
2022/03/29 01:49:10;;;;;;;19.80;14.75;;;7.50;99.90;;;;;;5015304;28;20052;-64
2022/03/29 01:51:35;;;;;;;23.80;16.13;;;7.40;99.90;;;;;;5015256;28;20052;-63
2022/03/29 01:54:02;;;;;;;23.10;16.15;;;7.40;99.90;;;;;;5016077;28;20042;-64
2022/03/29 01:56:29;;;;;;;23.05;15.65;;;7.30;99.90;;;;;;5015464;28;20093;-63
2022/03/29 01:58:56;;;;;;;24.58;16.58;;;7.20;99.90;;;;;;5015165;28;20085;-63
2022/03/29 02:01:21;;;;;;;23.27;15.98;;;7.30;99.90;;;;;;4997676;28;20049;-64
2022/03/29 02:03:47;;;;;;;21.63;15.57;;;7.30;99.90;;;;;;5015198;28;20030;-64
2022/03/29 02:06:13;;;;;;;22.63;15.90;;;7.20;99.90;;;;;;5015262;28;20049;-64
2022/03/29 02:08:39;;;;;;;21.60;15.10;;;7.20;99.90;;;;;;5014906;28;20049;-63
2022/03/29 02:11:06;;;;;;;24.92;15.82;;;7.30;99.90;;;;;;5014766;28;20061;-65
2022/03/29 02:13:33;;;;;;;22.63;15.55;;;7.30;99.90;;;;;;5015148;28;20053;-63
2022/03/29 02:15:58;;;;;;;23.95;15.93;;;7.30;99.90;;;;;;5015140;28;20049;-63
2022/03/29 02:18:24;;;;;;;20.60;15.13;;;7.30;99.90;;;;;;4997680;28;20073;-63
2022/03/29 02:20:50;;;;;;;19.92;15.13;;;7.20;99.90;;;;;;5014699;28;20447;-63
2022/03/29 02:23:15;;;;;;;22.48;15.35;;;7.40;99.90;;;;;;5015075;28;20034;-63
2022/03/29 02:25:42;;;;;;;26.30;16.38;;;7.50;99.90;;;;;;5015402;28;20163;-65
2022/03/29 02:28:08;;;;;;;25.23;16.60;;;7.30;99.90;;;;;;5014578;28;20109;-65
2022/03/29 02:30:35;;;;;;;23.85;16.05;;;7.10;99.90;;;;;;5014890;28;20192;-63
2022/03/29 02:33:05;;;;;;;23.58;16.75;;;7.00;99.90;;;;;;5014892;28;20042;-64
2022/03/29 02:35:30;;;;;;;21.80;16.30;;;7.00;99.90;;;;;;5014747;28;20042;-63
2022/03/29 02:37:56;;;;;;;24.48;16.42;;;6.80;99.90;;;;;;5014416;28;20103;-63
2022/03/29 02:40:22;;;;;;;24.15;17.27;;;6.80;99.90;;;;;;4996659;28;20041;-63
2022/03/29 02:42:53;;;;;;;22.58;15.73;;;6.90;99.90;;;;;;5014441;28;20038;-64
2022/03/29 02:45:25;;;;;;;24.08;16.45;;;7.00;99.90;;;;;;5014502;28;20399;-63
2022/03/29 02:47:55;;;;;;;22.98;16.52;;;7.20;99.90;;;;;;5013970;28;20037;-64
2022/03/29 02:50:23;;;;;;;25.85;17.85;;;7.10;99.90;;;;;;5014162;28;20129;-64
2022/03/29 02:52:54;;;;;;;22.85;15.85;;;7.10;99.90;;;;;;5014678;28;20099;-63
2022/03/29 02:55:21;;;;;;;23.20;16.48;;;7.10;99.90;;;;;;5014633;28;20056;-63
2022/03/29 02:57:48;;;;;;;23.05;16.00;;;7.20;99.90;;;;;;5014171;28;20056;-63
2022/03/29 03:00:16;;;;;;;21.25;15.63;;;7.00;99.90;;;;;;5014269;28;20414;-62
2022/03/29 03:02:54;;;;;;;23.40;16.50;;;6.90;99.90;;;;;;5014065;28;20510;-63
2022/03/29 03:05:19;;;;;;;23.88;16.38;;;6.90;99.90;;;;;;5014365;28;20042;-63
2022/03/29 03:07:46;;;;;;;23.77;15.50;;;7.00;99.90;;;;;;5014082;28;20351;-63
2022/03/29 03:10:13;;;;;;;21.95;16.45;;;6.90;99.90;;;;;;5013911;28;20038;-63
2022/03/29 03:12:41;;;;;;;23.38;15.95;;;7.00;99.90;;;;;;5014279;28;20046;-64
2022/03/29 03:15:09;;;;;;;23.70;15.60;;;7.00;99.90;;;;;;5013824;28;20050;-64
2022/03/29 03:17:35;;;;;;;21.52;15.38;;;7.00;99.90;;;;;;5012968;28;20100;-62
2022/03/29 03:20:02;;;;;;;21.92;15.60;;;7.10;99.90;;;;;;5013985;28;20038;-63
2022/03/29 03:22:27;;;;;;;22.50;16.30;;;7.10;99.90;;;;;;5014033;28;20049;-63
2022/03/29 03:24:53;;;;;;;21.90;16.42;;;6.90;99.90;;;;;;5014437;28;20038;-64
2022/03/29 03:27:19;;;;;;;22.17;17.48;;;6.90;99.90;;;;;;4996401;28;20073;-64
2022/03/29 03:29:45;;;;;;;22.08;16.40;;;7.00;99.90;;;;;;5014203;28;20113;-62
2022/03/29 03:32:12;;;;;;;24.38;16.90;;;7.20;99.90;;;;;;5013516;28;20117;-62
2022/03/29 03:34:38;;;;;;;22.98;17.05;;;7.00;99.90;;;;;;5014209;28;20048;-63
2022/03/29 03:37:04;;;;;;;22.73;17.08;;;7.00;99.90;;;;;;4997157;28;20368;-64
2022/03/29 03:39:33;;;;;;;23.60;16.80;;;6.90;99.90;;;;;;4996325;28;20383;-63
2022/03/29 03:41:59;;;;;;;22.27;17.35;;;7.00;99.90;;;;;;5014210;28;20049;-64
2022/03/29 03:44:25;;;;;;;24.40;17.42;;;7.10;99.90;;;;;;4996771;28;20049;-63
2022/03/29 03:46:51;;;;;;;22.70;18.00;;;7.00;99.90;;;;;;5013742;28;20052;-65
2022/03/29 03:49:16;;;;;;;26.35;17.77;;;7.10;99.90;;;;;;4996322;28;20382;-63
2022/03/29 03:51:42;;;;;;;27.92;21.67;;;7.10;99.90;;;;;;5014914;28;20366;-64
2022/03/29 03:54:08;;;;;;;25.98;18.65;;;7.20;99.90;;;;;;5017803;28;20077;-63
2022/03/29 03:56:33;;;;;;;24.58;18.42;;;7.00;99.90;;;;;;5018130;28;20072;-63
2022/03/29 03:58:59;;;;;;;24.15;17.75;;;6.90;99.90;;;;;;5018045;28;20188;-63
2022/03/29 04:01:25;;;;;;;24.88;18.77;;;6.80;99.90;;;;;;4983533;28;20045;-63
2022/03/29 04:03:51;;;;;;;26.48;18.20;;;6.90;99.90;;;;;;5017245;28;20057;-62
2022/03/29 04:06:16;;;;;;;24.40;17.75;;;6.90;99.90;;;;;;5017611;28;20463;-63
2022/03/29 04:08:42;;;;;;;27.85;18.40;;;7.00;99.90;;;;;;5017299;28;20092;-63
2022/03/29 04:11:08;;;;;;;22.17;17.65;;;7.10;99.90;;;;;;5017024;28;20122;-63
2022/03/29 04:13:34;;;;;;;23.98;17.48;;;7.10;99.90;;;;;;5000001;28;20045;-62
2022/03/29 04:16:01;;;;;;;24.25;17.73;;;7.10;99.90;;;;;;5017492;28;20060;-62
2022/03/29 04:18:27;;;;;;;25.70;17.98;;;7.10;99.90;;;;;;4999608;28;20049;-62
2022/03/29 04:20:53;;;;;;;23.95;16.38;;;7.00;99.90;;;;;;5017035;28;20034;-62
2022/03/29 04:23:19;;;;;;;25.75;17.65;;;7.20;99.90;;;;;;5017142;28;20045;-63
2022/03/29 04:25:45;;;;;;;30.02;17.95;;;7.00;99.90;;;;;;4999815;28;20077;-62
2022/03/29 04:28:11;;;;;;;26.17;18.20;;;6.80;99.90;;;;;;5016758;28;20061;-63
2022/03/29 04:30:36;;;;;;;26.15;17.95;;;6.70;99.90;;;;;;5016719;28;20034;-64
2022/03/29 04:33:02;;;;;;;30.08;18.75;;;6.80;99.90;;;;;;5016924;28;20095;-64
2022/03/29 04:35:28;;;;;;;23.05;17.02;;;6.80;99.90;;;;;;5010455;28;20030;-63
2022/03/29 04:37:53;;;;;;;27.63;17.15;;;6.90;99.90;;;;;;4997787;28;20507;-63
2022/03/29 04:40:20;;;;;;;25.27;18.52;;;6.90;99.90;;;;;;4996656;28;20046;-64
2022/03/29 04:42:49;;;;;;;24.63;16.50;;;7.00;99.90;;;;;;4998505;28;20045;-62
2022/03/29 04:45:16;;;;;;;26.98;18.48;;;7.00;99.90;;;;;;4995750;28;20046;-62
2022/03/29 04:47:43;;;;;;;24.48;17.02;;;6.90;99.90;;;;;;5007032;28;20077;-65
2022/03/29 04:50:10;;;;;;;24.95;17.73;;;6.90;99.90;;;;;;5015728;28;20367;-64
2022/03/29 04:52:36;;;;;;;29.40;17.27;;;6.90;99.90;;;;;;5014792;28;20042;-63
2022/03/29 04:55:03;;;;;;;25.60;17.27;;;7.00;99.90;;;;;;5015607;28;20359;-65
2022/03/29 04:57:28;;;;;;;27.60;18.35;;;7.00;99.90;;;;;;5015870;28;20038;-63
2022/03/29 04:59:54;;;;;;;25.02;17.38;;;7.00;99.90;;;;;;5016097;28;20045;-63
2022/03/29 05:02:19;;;;;;;27.20;18.58;;;6.90;99.90;;;;;;5015276;28;20085;-65
2022/03/29 05:04:45;;;;;;;26.35;16.85;;;6.90;99.90;;;;;;5016155;28;20042;-63
2022/03/29 05:07:11;;;;;;;29.25;18.33;;;7.10;99.90;;;;;;5015960;28;20121;-63
2022/03/29 05:09:36;;;;;;;27.08;17.27;;;7.00;99.90;;;;;;5014009;28;20121;-65
2022/03/29 05:12:02;;;;;;;25.70;17.52;;;7.00;99.90;;;;;;4998405;28;20042;-64
2022/03/29 05:14:28;;;;;;;27.92;18.50;;;7.00;99.90;;;;;;5015046;28;20054;-63
2022/03/29 05:16:54;;;;;;;25.08;17.38;;;6.90;99.90;;;;;;5016044;28;20046;-64
2022/03/29 05:19:19;;;;;;;29.55;18.40;;;6.80;99.90;;;;;;5015559;28;20433;-64
2022/03/29 05:21:45;;;;;;;26.33;16.52;;;7.00;99.90;;;;;;4997965;28;20514;-62
2022/03/29 05:24:11;;;;;;;26.85;17.40;;;7.00;99.90;;;;;;5015767;28;20458;-62
2022/03/29 05:26:37;;;;;;;30.17;17.55;;;7.00;99.90;;;;;;5016048;28;20046;-66
2022/03/29 05:29:02;;;;;;;27.15;19.42;;;7.00;99.90;;;;;;4998391;28;20038;-64
2022/03/29 05:31:28;;;;;;;28.23;17.65;;;7.00;99.90;;;;;;4998949;28;20042;-63
2022/03/29 05:33:54;;;;;;;29.13;18.85;;;7.00;99.90;;;;;;5015737;28;20041;-63
2022/03/29 05:36:20;;;;;;;30.38;18.48;;;7.00;99.90;;;;;;5016165;28;20404;-63
2022/03/29 05:38:50;;;;;;;26.58;18.52;;;7.00;99.90;;;;;;5015386;28;20069;-64
2022/03/29 05:41:19;;;;;;;29.10;19.67;;;7.00;99.90;;;;;;5015100;28;20041;-65
2022/03/29 05:43:47;;;;;;;27.77;18.13;;;7.00;99.90;;;;;;4997496;28;20038;-63
2022/03/29 05:48:56;;;;;;;31.30;19.45;;;7.10;99.90;;;;;;5015250;28;20056;-64
2022/03/29 05:51:24;;;;;;;26.52;18.40;;;7.10;99.90;;;;;;5015518;28;20037;-63
2022/03/29 05:53:51;;;;;;;29.25;18.92;;;7.10;99.90;;;;;;5015593;28;20121;-64
2022/03/29 05:56:17;;;;;;;28.55;18.50;;;7.10;99.90;;;;;;5015581;28;20049;-64
2022/03/29 05:58:43;;;;;;;29.63;19.38;;;7.10;99.90;;;;;;5015317;28;20045;-64
2022/03/29 06:01:09;;;;;;;31.88;18.02;;;7.10;99.90;;;;;;5015007;28;20099;-64
2022/03/29 06:03:35;;;;;;;32.25;18.08;;;7.00;99.90;;;;;;5014659;28;20033;-64
2022/03/29 06:06:01;;;;;;;33.78;18.15;;;7.20;99.90;;;;;;5015698;28;20040;-64
2022/03/29 06:08:26;;;;;;;28.65;17.10;;;7.30;99.90;;;;;;4981771;28;20060;-64
2022/03/29 06:10:53;;;;;;;28.42;17.73;;;7.20;99.90;;;;;;5014722;28;20450;-63
2022/03/29 06:13:19;;;;;;;26.42;17.73;;;7.20;99.90;;;;;;5014964;28;20073;-64
2022/03/29 06:15:45;;;;;;;24.85;17.13;;;7.30;99.90;;;;;;4997176;28;20077;-64
2022/03/29 06:18:10;;;;;;;29.75;18.05;;;7.30;99.90;;;;;;5014782;28;20052;-64
2022/03/29 06:20:36;;;;;;;28.13;17.95;;;7.20;99.90;;;;;;4997546;28;20042;-64
2022/03/29 06:23:02;;;;;;;27.42;18.20;;;7.20;99.90;;;;;;4997589;28;20049;-64
2022/03/29 06:25:28;;;;;;;33.00;18.58;;;7.20;99.90;;;;;;5015137;28;20052;-63
2022/03/29 06:27:54;;;;;;;32.53;18.23;;;7.20;99.90;;;;;;4997116;28;20042;-64
2022/03/29 06:30:20;;;;;;;31.00;20.08;;;7.20;99.90;;;;;;5014400;28;20065;-64
2022/03/29 06:32:51;;;;;;;28.88;18.75;;;7.10;99.90;;;;;;4997514;28;20038;-64
2022/03/29 06:35:21;;;;;;;28.10;18.52;;;7.10;99.90;;;;;;5015011;28;20049;-64
2022/03/29 06:37:49;;;;;;;28.58;18.42;;;7.20;99.90;;;;;;5014436;28;20364;-64
2022/03/29 06:40:15;;;;;;;30.92;20.52;;;7.30;99.90;;;;;;5014256;28;20034;-65
2022/03/29 06:42:41;;;;;;;28.27;18.15;;;7.30;99.90;;;;;;5014847;28;20348;-64
2022/03/29 06:45:08;;;;;;;30.30;18.27;;;7.40;99.90;;;;;;5014692;28;20087;-63
2022/03/29 06:47:33;;;;;;;31.38;19.50;;;7.60;99.90;;;;;;4997227;28;20068;-64
2022/03/29 06:50:00;;;;;;;29.08;19.00;;;7.50;99.90;;;;;;5014985;28;20034;-62
2022/03/29 06:52:28;;;;;;;26.10;17.77;;;7.50;99.90;;;;;;5014072;28;20045;-63
2022/03/29 06:54:54;;;;;;;27.10;18.40;;;7.60;99.90;;;;;;5014518;28;20046;-62
2022/03/29 06:57:19;;;;;;;25.52;17.73;;;7.60;99.90;;;;;;5014210;28;20070;-62
2022/03/29 06:59:45;;;;;;;28.35;18.40;;;7.50;99.90;;;;;;5014677;28;20038;-62
2022/03/29 07:02:11;;;;;;;29.65;16.95;;;7.50;99.90;;;;;;5012936;28;20061;-62
2022/03/29 07:04:37;;;;;;;29.67;18.27;;;7.40;99.90;;;;;;5014319;28;20053;-65
2022/03/29 07:07:03;;;;;;;28.42;16.85;;;7.50;99.90;;;;;;5013006;28;20463;-64
2022/03/29 07:12:13;;;;;;;30.38;17.60;;;7.70;99.90;;;;;;5013710;28;20381;-63
2022/03/29 07:14:39;;;;;;;30.98;18.30;;;7.80;99.90;;;;;;5014135;28;20057;-63
2022/03/29 07:17:08;;;;;;;28.88;17.25;;;7.70;99.90;;;;;;5013625;28;20050;-64
2022/03/29 07:19:33;;;;;;;30.70;18.23;;;7.70;99.90;;;;;;5014339;28;20060;-63
2022/03/29 07:21:59;;;;;;;29.70;17.92;;;7.80;99.90;;;;;;5013132;28;20045;-63
2022/03/29 07:24:25;;;;;;;30.13;19.23;;;7.70;99.90;;;;;;5014435;28;20104;-63
2022/03/29 07:26:50;;;;;;;25.17;17.10;;;7.70;99.90;;;;;;5016961;28;20115;-63
2022/03/29 07:29:17;;;;;;;28.42;17.35;;;7.80;99.90;;;;;;5018154;28;20048;-66
2022/03/29 07:31:43;;;;;;;27.45;18.10;;;8.00;99.90;;;;;;5017533;28;20092;-64
2022/03/29 07:34:09;;;;;;;27.70;18.48;;;8.00;99.90;;;;;;5018118;28;20397;-63
2022/03/29 07:36:34;;;;;;;30.70;18.95;;;7.90;99.90;;;;;;5017783;28;20120;-63
2022/03/29 07:39:00;;;;;;;30.17;18.50;;;7.90;99.90;;;;;;5017728;28;20041;-65
2022/03/29 07:41:26;;;;;;;28.92;18.27;;;7.80;99.90;;;;;;5017618;28;20716;-63
2022/03/29 07:43:54;;;;;;;31.65;17.48;;;7.90;99.90;;;;;;5018063;28;20048;-64
2022/03/29 07:46:20;;;;;;;30.42;17.98;;;8.10;99.90;;;;;;5017740;28;20054;-65
2022/03/29 07:48:46;;;;;;;28.05;17.73;;;8.10;99.90;;;;;;5017457;28;20053;-63
2022/03/29 07:51:11;;;;;;;26.90;17.83;;;8.00;99.90;;;;;;4999948;28;20041;-64
2022/03/29 07:53:38;;;;;;;29.67;18.40;;;8.10;99.90;;;;;;5018022;28;20041;-64
2022/03/29 07:56:04;;;;;;;30.95;18.92;;;8.00;99.90;;;;;;5017663;28;20481;-65
2022/03/29 07:58:30;;;;;;;27.55;18.75;;;8.20;99.90;;;;;;5017419;28;20034;-63
2022/03/29 08:00:55;;;;;;;30.38;18.92;;;8.10;99.90;;;;;;5017297;28;20056;-63
2022/03/29 08:03:21;;;;;;;31.00;19.13;;;8.30;99.90;;;;;;5017503;28;20165;-65
2022/03/29 08:05:48;;;;;;;30.35;18.00;;;8.40;99.90;;;;;;5017660;28;20046;-63
2022/03/29 08:08:16;;;;;;;27.58;18.15;;;8.40;99.90;;;;;;4999957;28;20045;-63
2022/03/29 08:10:43;;;;;;;29.75;17.27;;;8.40;99.90;;;;;;5017011;28;20037;-64
2022/03/29 08:13:14;;;;;;;26.90;18.30;;;8.40;99.90;;;;;;5016970;28;20459;-63
2022/03/29 08:15:41;;;;;;;29.67;19.85;;;8.40;99.90;;;;;;5017460;28;20371;-65
2022/03/29 08:18:07;;;;;;;33.20;19.33;;;8.40;99.90;;;;;;5016870;28;20044;-65
2022/03/29 08:20:34;;;;;;;31.38;18.65;;;8.50;99.90;;;;;;5016881;28;20456;-65
2022/03/29 08:23:00;;;;;;;28.88;17.75;;;8.60;99.90;;;;;;5017468;28;20034;-64
2022/03/29 08:25:29;;;;;;;34.28;19.73;;;8.80;99.90;;;;;;5017247;28;20046;-63
2022/03/29 08:27:56;;;;;;;26.15;17.92;;;8.80;99.90;;;;;;5016722;28;20033;-63
2022/03/29 08:30:22;;;;;;;33.80;19.73;;;8.90;99.90;;;;;;5016709;28;20042;-64
2022/03/29 08:32:48;;;;;;;31.17;19.33;;;9.10;99.90;;;;;;5016962;28;20030;-64
2022/03/29 08:35:13;;;;;;;33.65;21.00;;;9.30;99.90;;;;;;5016706;28;20570;-64
2022/03/29 08:37:41;;;;;;;26.17;17.48;;;9.30;99.90;;;;;;5015802;28;20120;-63
2022/03/29 08:40:13;;;;;;;31.98;18.77;;;9.30;99.90;;;;;;5017205;28;20033;-63
2022/03/29 08:42:43;;;;;;;32.38;19.90;;;9.20;99.90;;;;;;4999310;28;20351;-64
2022/03/29 08:45:11;;;;;;;29.08;18.98;;;9.20;99.90;;;;;;5016550;28;20045;-64
2022/03/29 08:47:39;;;;;;;30.10;18.08;;;9.30;99.90;;;;;;5016496;28;20091;-65
2022/03/29 08:50:06;;;;;;;32.40;19.00;;;9.50;99.90;;;;;;5016824;28;20065;-64
2022/03/29 08:52:33;;;;;;;31.48;19.73;;;9.60;99.90;;;;;;5016270;28;20053;-65
2022/03/29 08:54:59;;;;;;;31.23;19.75;;;9.60;99.90;;;;;;5016385;28;20042;-64
2022/03/29 08:57:25;;;;;;;26.25;17.67;;;9.60;99.90;;;;;;4998633;28;20064;-66
2022/03/29 08:59:50;;;;;;;27.30;17.98;;;9.90;99.90;;;;;;5016548;28;20041;-64
2022/03/29 09:02:17;;;;;;;28.85;17.23;;;9.90;99.90;;;;;;5016139;28;20132;-64
2022/03/29 09:04:44;;;;;;;30.40;17.65;;;10.10;99.90;;;;;;5016396;28;20416;-65
2022/03/29 09:07:10;;;;;;;28.38;17.55;;;10.20;99.90;;;;;;5016061;28;20085;-64
2022/03/29 09:09:38;;;;;;;30.80;17.10;;;10.30;99.90;;;;;;4983059;28;20131;-63
2022/03/29 09:12:12;;;;;;;26.20;16.33;;;10.40;99.90;;;;;;4998665;28;20042;-64
2022/03/29 09:14:54;;;;;;;32.88;17.77;;;10.60;99.90;;;;;;5016147;28;20104;-65
2022/03/29 09:17:33;;;;;;;27.65;16.77;;;10.50;99.90;;;;;;5015770;28;20054;-65
2022/03/29 09:19:59;;;;;;;28.33;17.23;;;10.70;99.90;;;;;;5016232;28;20116;-66
2022/03/29 09:22:53;;;;;;;29.95;17.52;;;10.70;99.90;;;;;;4998321;28;20057;-65
2022/03/29 09:25:23;;;;;;;26.70;16.48;;;10.80;99.90;;;;;;5016260;28;20042;-64
2022/03/29 09:28:12;;;;;;;25.92;17.05;;;10.80;99.90;;;;;;5015661;28;20038;-64
2022/03/29 09:30:40;;;;;;;28.50;16.88;;;10.90;99.90;;;;;;5015683;28;20141;-65
2022/03/29 09:33:12;;;;;;;25.67;16.42;;;11.00;99.90;;;;;;5015953;28;20112;-64
2022/03/29 09:36:14;;;;;;;26.70;18.08;;;11.30;99.90;;;;;;5015924;28;20068;-66
2022/03/29 09:38:46;;;;;;;27.92;16.25;;;11.70;99.90;;;;;;4994313;28;20497;-64
2022/03/29 09:41:22;;;;;;;28.35;17.30;;;11.80;99.90;;;;;;5015468;28;20034;-64
2022/03/29 09:44:10;;;;;;;23.60;16.13;;;11.90;99.90;;;;;;5015556;28;20104;-64
2022/03/29 09:46:55;;;;;;;25.25;16.80;;;12.00;99.90;;;;;;5015267;28;20034;-64
2022/03/29 09:49:21;;;;;;;24.48;15.77;;;12.20;99.90;;;;;;5014714;28;20069;-64
2022/03/29 09:51:50;;;;;;;29.50;17.65;;;12.10;99.90;;;;;;5015332;28;20046;-64
2022/03/29 09:54:16;;;;;;;30.15;17.25;;;12.20;99.90;;;;;;5015565;28;20042;-65
2022/03/29 09:56:50;;;;;;;27.20;17.90;;;12.40;99.90;;;;;;5015226;28;20045;-64
2022/03/29 09:59:17;;;;;;;26.85;17.50;;;12.20;99.90;;;;;;4998382;28;20233;-65
2022/03/29 10:01:55;;;;;;;27.50;18.10;;;12.20;99.90;;;;;;5014834;28;20124;-64
2022/03/29 10:04:21;;;;;;;30.80;17.77;;;12.40;99.90;;;;;;4997812;28;20065;-65
2022/03/29 10:06:50;;;;;;;26.50;17.15;;;12.40;99.90;;;;;;4997813;28;20042;-64
2022/03/29 10:09:30;;;;;;;32.08;18.73;;;12.60;99.90;;;;;;5015547;28;20112;-64
2022/03/29 10:12:05;;;;;;;28.30;15.85;;;12.60;99.90;;;;;;5014935;28;20045;-65
2022/03/29 10:14:41;;;;;;;29.73;18.50;;;12.60;99.90;;;;;;5015020;28;20064;-64
2022/03/29 10:17:07;;;;;;;26.33;16.85;;;12.60;99.90;;;;;;4997042;28;20045;-65
2022/03/29 10:19:34;;;;;;;29.35;17.80;;;12.40;99.90;;;;;;5015501;28;20046;-64
2022/03/29 10:22:01;;;;;;;29.50;17.77;;;12.40;99.90;;;;;;5014728;28;20505;-66
2022/03/29 10:24:31;;;;;;;29.20;17.92;;;12.30;99.90;;;;;;5015298;28;20070;-64
2022/03/29 10:27:02;;;;;;;30.40;17.67;;;12.20;99.90;;;;;;5014499;28;20057;-64
2022/03/29 10:29:29;;;;;;;28.50;17.35;;;11.80;99.90;;;;;;5014952;28;20030;-64
2022/03/29 10:32:05;;;;;;;29.83;17.70;;;11.90;99.90;;;;;;5014088;28;20463;-66
2022/03/29 10:34:37;;;;;;;27.23;17.13;;;12.00;99.90;;;;;;5015150;28;20127;-64
2022/03/29 10:37:09;;;;;;;33.85;18.73;;;12.20;99.90;;;;;;5014756;28;20033;-64
2022/03/29 10:39:53;;;;;;;28.73;16.92;;;12.40;99.90;;;;;;5014560;28;20451;-64
2022/03/29 10:42:46;;;;;;;29.70;15.93;;;12.60;99.90;;;;;;5014759;28;20447;-64
2022/03/29 10:45:22;;;;;;;29.17;16.55;;;12.60;99.90;;;;;;4997590;28;20048;-64
2022/03/29 10:47:58;;;;;;;22.77;15.60;;;12.30;99.90;;;;;;5014462;28;20056;-66
2022/03/29 10:50:50;;;;;;;28.13;16.58;;;12.40;99.90;;;;;;4997445;28;20056;-64
2022/03/29 10:53:50;;;;;;;28.52;16.55;;;12.30;99.90;;;;;;4995019;28;20058;-64
2022/03/29 10:56:16;;;;;;;30.02;17.27;;;12.40;99.90;;;;;;4966853;28;20490;-65
2022/03/29 10:59:00;;;;;;;28.80;17.02;;;12.50;99.90;;;;;;4977520;28;20046;-65
2022/03/29 11:01:26;;;;;;;26.30;16.55;;;12.50;99.90;;;;;;5001957;28;20042;-64
2022/03/29 11:04:01;;;;;;;26.08;15.68;;;12.80;99.90;;;;;;5014534;28;20037;-64
2022/03/29 11:06:27;;;;;;;28.55;15.88;;;12.90;99.90;;;;;;5014163;28;20049;-65
2022/03/29 11:09:05;;;;;;;27.05;16.38;;;13.00;99.90;;;;;;5014633;28;20150;-64
2022/03/29 11:11:47;;;;;;;24.52;16.15;;;12.90;99.90;;;;;;5014045;28;20467;-64
2022/03/29 11:14:27;;;;;;;29.63;17.45;;;12.60;99.90;;;;;;5013805;28;20476;-64
2022/03/29 11:17:16;;;;;;;23.88;16.25;;;12.70;99.90;;;;;;5013613;28;20136;-63
2022/03/29 11:19:48;;;;;;;28.23;15.95;;;12.50;99.90;;;;;;5014022;28;20360;-64
2022/03/29 11:22:33;;;;;;;27.60;16.27;;;12.70;99.90;;;;;;5013645;28;20049;-63
2022/03/29 11:25:05;;;;;;;31.30;17.60;;;13.00;99.90;;;;;;5014018;28;20052;-64
2022/03/29 11:27:35;;;;;;;29.33;17.40;;;13.10;99.90;;;;;;5013984;28;20057;-63
2022/03/29 11:30:05;;;;;;;26.13;16.95;;;13.20;99.90;;;;;;5014118;28;20124;-63
2022/03/29 11:32:34;;;;;;;25.48;16.55;;;13.20;99.90;;;;;;5013724;28;20041;-63
2022/03/29 11:35:01;;;;;;;27.25;16.58;;;13.30;99.90;;;;;;5014247;28;20075;-63
2022/03/29 11:37:40;;;;;;;30.83;16.35;;;13.40;99.90;;;;;;4980423;28;20050;-63
2022/03/29 11:40:08;;;;;;;26.42;15.82;;;13.40;99.90;;;;;;4996631;28;20046;-63
2022/03/29 11:42:51;;;;;;;26.13;16.80;;;13.50;99.90;;;;;;5013692;28;20042;-63
2022/03/29 11:45:21;;;;;;;25.58;15.93;;;13.20;99.90;;;;;;5013661;28;20427;-63
2022/03/29 11:47:59;;;;;;;22.30;14.02;;;13.20;99.90;;;;;;5013363;28;20042;-64
2022/03/29 11:50:46;;;;;;;27.23;17.02;;;13.20;99.90;;;;;;4980324;28;20502;-64
2022/03/29 11:53:32;;;;;;;26.80;15.18;;;13.10;99.90;;;;;;4994136;28;20050;-65
2022/03/29 11:56:01;;;;;;;29.45;16.88;;;13.20;99.90;;;;;;4993989;28;20118;-63
2022/03/29 11:58:32;;;;;;;26.50;16.52;;;13.00;99.90;;;;;;4976900;28;20042;-63
2022/03/29 12:01:03;;;;;;;28.83;15.95;;;13.00;99.90;;;;;;4997270;28;20653;-64
2022/03/29 12:03:41;;;;;;;26.88;16.48;;;13.40;99.90;;;;;;5014080;28;20038;-64
2022/03/29 12:06:25;;;;;;;27.95;16.50;;;13.50;99.90;;;;;;5013627;28;20463;-64
2022/03/29 12:09:16;;;;;;;26.63;15.63;;;13.30;99.90;;;;;;5013624;28;20046;-64
2022/03/29 12:11:42;;;;;;;30.08;16.90;;;13.40;99.90;;;;;;5013398;28;20478;-67
2022/03/29 12:14:12;;;;;;;25.27;15.18;;;13.40;99.90;;;;;;4999300;28;20056;-65
2022/03/29 12:16:42;;;;;;;29.60;14.95;;;13.30;99.90;;;;;;5017013;28;20061;-64
2022/03/29 12:19:09;;;;;;;24.52;15.15;;;13.50;99.90;;;;;;5017461;28;20042;-64
2022/03/29 12:21:35;;;;;;;31.25;16.05;;;13.40;99.90;;;;;;5016888;28;20124;-64
2022/03/29 12:24:11;;;;;;;23.33;14.98;;;13.60;99.90;;;;;;5017665;28;20125;-65
2022/03/29 12:26:43;;;;;;;26.73;15.52;;;13.60;99.90;;;;;;5016912;28;20045;-66
2022/03/29 12:29:12;;;;;;;26.65;15.77;;;13.70;99.90;;;;;;5017251;28;20411;-64
2022/03/29 12:31:39;;;;;;;27.27;16.00;;;13.40;99.90;;;;;;5016660;28;20041;-64
2022/03/29 12:34:05;;;;;;;28.52;15.65;;;13.40;99.90;;;;;;5017088;28;20042;-64
2022/03/29 12:36:32;;;;;;;29.65;16.00;;;13.60;99.90;;;;;;4999648;28;20091;-65
2022/03/29 12:39:05;;;;;;;28.40;16.50;;;13.70;99.90;;;;;;5017092;28;20038;-64
2022/03/29 12:41:32;;;;;;;29.63;15.05;;;13.90;99.90;;;;;;5016502;28;20046;-64
2022/03/29 12:43:58;;;;;;;24.33;15.27;;;14.00;99.90;;;;;;4999977;28;20448;-64
2022/03/29 12:46:24;;;;;;;29.13;15.40;;;13.90;99.90;;;;;;5016470;28;20131;-64
2022/03/29 12:48:50;;;;;;;22.52;15.07;;;13.90;99.90;;;;;;5016821;28;20084;-65